Address 0x792e7b79e8949648e1b1b13f331fb80949bd1605

Txn Hash Method
Block
From
To
Value [Txn Fee]
0x155568228e6c071841aa17eee5361b9ab0e16457e949c4c177edd0c396ae6f950x9cf95a87152362432022-09-22 12:19:3811 days 2 hrs ago0x792e7b79e8949648e1b1b13f331fb80949bd1605OUT 0x7257f454ba183c50a67a55572e04b11e8fb520030 CELO0.0001087865
0x401fac8e16e98b63fdd8a960f8c0018b1e0d1d7169b68bc00f768fa11910f90bApprove152362412022-09-22 12:19:2811 days 2 hrs ago0x792e7b79e8949648e1b1b13f331fb80949bd1605OUT Plastiks: PLASTIK Token0 CELO0.000014893
0xd9ad6da5d4f134c8e3d655d6f46ef72eb0b5c42551cc05cc4397d18065391b24Approve152360032022-09-22 11:59:3811 days 3 hrs ago0x792e7b79e8949648e1b1b13f331fb80949bd1605OUT Plastiks: PLASTIK Token0 CELO0.000012843
0x677bc220c3d930fbfc200b48c218be17e895af1457eabdc185825a5ade026f34Approve152308532022-09-22 4:50:1311 days 10 hrs ago0x792e7b79e8949648e1b1b13f331fb80949bd1605OUT Plastiks: PLASTIK Token0 CELO0.000012843
0x3a6da73e91faf9d344d90c3cba043a36db4977bd05ad57795453919649265ec8Approve152307922022-09-22 4:45:0811 days 10 hrs ago0x792e7b79e8949648e1b1b13f331fb80949bd1605OUT Plastiks: PLASTIK Token0 CELO0.000022793
0x50cc0322ee7a944bf5a4ccce835111a14eb088911ccd538400dc2086700c50d70x6515886a152307442022-09-22 4:41:0811 days 10 hrs ago0x792e7b79e8949648e1b1b13f331fb80949bd1605OUT 0xeb1f6d9678335490fc0e79486df05775e8b7d6eb0 CELO0.000055884
0x5015c71aefa019e448497480ff612ab6ebe1436e09b237b57c028f903b102ef10x8bfbda73152307332022-09-22 4:40:1311 days 10 hrs ago0x792e7b79e8949648e1b1b13f331fb80949bd1605OUT 0xeb1f6d9678335490fc0e79486df05775e8b7d6eb6.99999999983979 CELO0.000041512
0xc6c67f1cd24b560e8d8888358df7a94f46f89d0ed7164a830d624b4592c721a6Approve152306952022-09-22 4:37:0311 days 10 hrs ago0x792e7b79e8949648e1b1b13f331fb80949bd1605OUT Celo: cUSD Token0 CELO0.0000253425
0x192eee1dbccf1d4323820cdc49c8cb34f8e175aacc86206a4fe1f9dc7422a4be0xb2d3ed39152202192022-09-21 14:04:0012 days 1 hr ago0x792e7b79e8949648e1b1b13f331fb80949bd1605OUT 0x046d19c5e5e8938d54fb02dcc396acf7f275490a0 CELO0.000125038
0x2a97e2b4a03a0e33b10e154b55d979da2dec18bae8713a8986a4493ac47f3503Approve152202172022-09-21 14:03:5012 days 1 hr ago0x792e7b79e8949648e1b1b13f331fb80949bd1605OUT Celo: cUSD Token0 CELO0.0000253425
0x8a8f32e82196675f68fb8322e75bae6eaae4373d865780c0380e17cdc6ff0b910x2bc7d67a152201972022-09-21 14:02:1012 days 1 hr ago0x792e7b79e8949648e1b1b13f331fb80949bd1605OUT Celo: Exchange Proxy0 CELO0.0000754175
0xff90bb9b8591d69ad556dbd8dae6182668d2c83a53a013b310b256bc3ae7aa64Approve152201962022-09-21 14:02:0512 days 1 hr ago0x792e7b79e8949648e1b1b13f331fb80949bd1605OUT Celo: CELO Token0 CELO0.000023639
0x1673ba00b24e258e525a0fab6a73d24a06f6a076340999eae635b04a85fadda7Stake149078452022-09-03 12:11:5430 days 2 hrs ago0x792e7b79e8949648e1b1b13f331fb80949bd1605OUT 0xcb16e29d0b667bad7266e5d0cd59b711b6273c6b0 CELO0.0000560095
0x8dc78e44a9f3629ce68f3179191fe70827bf2f497873d0c475728880f34e3e54Swap Exact Token...149075952022-09-03 11:51:0430 days 3 hrs ago0x792e7b79e8949648e1b1b13f331fb80949bd1605OUT0xe3d8bd6aed4f159bc8000a9cd47cffdb95f961210 CELO0.000099405
0xc0c7588a25423a480037a0869f65c74291519a8d99324b94fb3dc61407a7c7f5Approve149075892022-09-03 11:50:3430 days 3 hrs ago0x792e7b79e8949648e1b1b13f331fb80949bd1605OUT Celo: CELO Token0 CELO0.000023795
0xaddacaf2cd987ce32c34032d4c36391c8267ed84649d42dc79789cb756e9913bStake146671332022-08-20 13:52:0644 days 1 hr ago0x792e7b79e8949648e1b1b13f331fb80949bd1605OUT 0xcb16e29d0b667bad7266e5d0cd59b711b6273c6b0 CELO0.0000603095
0x721cc1a4c175334122edc6c323e96913a603549bf5ef9bc2e7b2732549238499Approve146671292022-08-20 13:51:4644 days 1 hr ago0x792e7b79e8949648e1b1b13f331fb80949bd1605OUT EthicHub: ETHIX Token0 CELO0.0000257815
0xb7d40ef77fd36b76d904b559a8371411543e6b442d09fcac271a1c837c980220Swap Exact Token...146670812022-08-20 13:47:4644 days 1 hr ago0x792e7b79e8949648e1b1b13f331fb80949bd1605OUT0xe3d8bd6aed4f159bc8000a9cd47cffdb95f961210 CELO0.000069291
0xbf1fbee40ccd7a2878f2c64984324834f622bd7d898bdb20414f4807398a6f6eApprove146670682022-08-20 13:46:4144 days 1 hr ago0x792e7b79e8949648e1b1b13f331fb80949bd1605OUT Celo: cUSD Token0 CELO0.0000253365
0xa26139d0da5dee5b1719be5052d6923c775e0c21f38093ec82b5cb54e3e7e17b0xfec77fc7146669652022-08-20 13:38:0644 days 1 hr ago0x792e7b79e8949648e1b1b13f331fb80949bd1605OUT 0x0f497a790429685a3cfd43b841865ee185378ff00 CELO0.0001969595
0x0dbdff1ca526108b8b3a78551208827fb48d7122f5daed2ff8ae6ab5126b99a9Approve146669592022-08-20 13:37:3644 days 1 hr ago0x792e7b79e8949648e1b1b13f331fb80949bd1605OUT Celo: cUSD Token0 CELO0.0000253425
0x5557ce7197710f1755ad7b2c4c2a45206249bfa934bff874105bfb42adda5af5Transfer145064992022-08-11 6:45:4453 days 8 hrs ago0x98db3a41bf8bf4ded2c92a84ec0705689ddeef8b IN 0x792e7b79e8949648e1b1b13f331fb80949bd160587.143246341134922 CELO0.000025349242
[ Download CSV Export 
Parent Txn Hash Block From To Value
Loading

Contract Name:
0

Compiler Version
0

Optimization Enabled:
0

Other Settings:
-NA-
Block Transaction Gas Used Reward
Age Block Fee Address BC Fee Address Voting Power Jailed Incoming
Block Uncle Number Difficulty Gas Used Reward
Loading
Make sure to use the "Vote Down" button for any spammy posts, and the "Vote Up" for interesting conversations.